sensor_id;sensor_type;location;lat;lon;timestamp;temperature;humidity
33207;DHT22;19565;46.602;11.534;2023-10-19T00:00:32;11.60;99.90
33207;DHT22;19565;46.602;11.534;2023-10-19T00:03:03;11.60;99.90
33207;DHT22;19565;46.602;11.534;2023-10-19T00:05:30;11.60;99.90
33207;DHT22;19565;46.602;11.534;2023-10-19T00:07:59;11.70;99.90
33207;DHT22;19565;46.602;11.534;2023-10-19T00:10:27;11.70;99.90
33207;DHT22;19565;46.602;11.534;2023-10-19T00:13:01;11.60;99.90
33207;DHT22;19565;46.602;11.534;2023-10-19T00:15:31;11.70;99.90
33207;DHT22;19565;46.602;11.534;2023-10-19T00:18:01;11.70;99.90
33207;DHT22;19565;46.602;11.534;2023-10-19T00:20:34;11.60;99.90
33207;DHT22;19565;46.602;11.534;2023-10-19T00:23:16;11.60;99.90
33207;DHT22;19565;46.602;11.534;2023-10-19T00:25:45;11.60;99.90
33207;DHT22;19565;46.602;11.534;2023-10-19T00:28:19;11.60;99.90
33207;DHT22;19565;46.602;11.534;2023-10-19T00:30:49;11.60;99.90
33207;DHT22;19565;46.602;11.534;2023-10-19T00:33:19;11.60;99.90
33207;DHT22;19565;46.602;11.534;2023-10-19T00:35:48;11.60;99.90
33207;DHT22;19565;46.602;11.534;2023-10-19T00:38:25;11.60;99.90
33207;DHT22;19565;46.602;11.534;2023-10-19T00:41:06;11.60;99.90
33207;DHT22;19565;46.602;11.534;2023-10-19T00:43:41;11.60;99.90
33207;DHT22;19565;46.602;11.534;2023-10-19T00:46:12;11.70;99.90
33207;DHT22;19565;46.602;11.534;2023-10-19T00:48:54;11.60;99.90
33207;DHT22;19565;46.602;11.534;2023-10-19T00:51:25;11.60;99.90
33207;DHT22;19565;46.602;11.534;2023-10-19T00:54:10;11.60;99.90
33207;DHT22;19565;46.602;11.534;2023-10-19T00:56:43;11.60;99.90
33207;DHT22;19565;46.602;11.534;2023-10-19T00:59:18;11.60;99.90
33207;DHT22;19565;46.602;11.534;2023-10-19T01:01:51;11.60;99.90
33207;DHT22;19565;46.602;11.534;2023-10-19T01:04:21;11.60;99.90
33207;DHT22;19565;46.602;11.534;2023-10-19T01:06:51;11.60;99.90
33207;DHT22;19565;46.602;11.534;2023-10-19T01:09:28;11.60;99.90
33207;DHT22;19565;46.602;11.534;2023-10-19T01:12:01;11.60;99.90
33207;DHT22;19565;46.602;11.534;2023-10-19T01:14:34;11.60;99.90
33207;DHT22;19565;46.602;11.534;2023-10-19T01:17:01;11.60;99.90
33207;DHT22;19565;46.602;11.534;2023-10-19T01:19:33;11.70;99.90
33207;DHT22;19565;46.602;11.534;2023-10-19T01:22:01;11.60;99.90
33207;DHT22;19565;46.602;11.534;2023-10-19T01:24:32;11.70;99.90
33207;DHT22;19565;46.602;11.534;2023-10-19T01:27:07;11.70;99.90
33207;DHT22;19565;46.602;11.534;2023-10-19T01:29:37;11.60;99.90
33207;DHT22;19565;46.602;11.534;2023-10-19T01:32:06;11.60;99.90
33207;DHT22;19565;46.602;11.534;2023-10-19T01:34:35;11.60;99.90
33207;DHT22;19565;46.602;11.534;2023-10-19T01:37:04;11.60;99.90
33207;DHT22;19565;46.602;11.534;2023-10-19T01:39:33;11.60;99.90
33207;DHT22;19565;46.602;11.534;2023-10-19T01:42:02;11.60;99.90
33207;DHT22;19565;46.602;11.534;2023-10-19T01:44:31;11.60;99.90
33207;DHT22;19565;46.602;11.534;2023-10-19T01:47:02;11.60;99.90
33207;DHT22;19565;46.602;11.534;2023-10-19T01:49:33;11.60;99.90
33207;DHT22;19565;46.602;11.534;2023-10-19T01:52:01;11.60;99.90
33207;DHT22;19565;46.602;11.534;2023-10-19T01:54:28;11.60;99.90
33207;DHT22;19565;46.602;11.534;2023-10-19T01:56:57;11.60;99.90
33207;DHT22;19565;46.602;11.534;2023-10-19T01:59:26;11.60;99.90
33207;DHT22;19565;46.602;11.534;2023-10-19T02:01:55;11.60;99.90
33207;DHT22;19565;46.602;11.534;2023-10-19T02:04:24;11.60;99.90
33207;DHT22;19565;46.602;11.534;2023-10-19T02:06:52;11.60;99.90
33207;DHT22;19565;46.602;11.534;2023-10-19T02:09:21;11.70;99.90
33207;DHT22;19565;46.602;11.534;2023-10-19T02:11:50;11.70;99.90
33207;DHT22;19565;46.602;11.534;2023-10-19T02:14:21;11.70;99.90
33207;DHT22;19565;46.602;11.534;2023-10-19T02:16:53;11.70;99.90
33207;DHT22;19565;46.602;11.534;2023-10-19T02:19:24;11.70;99.90
33207;DHT22;19565;46.602;11.534;2023-10-19T02:21:53;11.70;99.90
33207;DHT22;19565;46.602;11.534;2023-10-19T02:24:20;11.70;99.90
33207;DHT22;19565;46.602;11.534;2023-10-19T02:26:50;11.70;99.90
33207;DHT22;19565;46.602;11.534;2023-10-19T02:29:18;11.70;99.90
33207;DHT22;19565;46.602;11.534;2023-10-19T02:31:47;11.70;99.90
33207;DHT22;19565;46.602;11.534;2023-10-19T02:34:16;11.70;99.90
33207;DHT22;19565;46.602;11.534;2023-10-19T02:36:45;11.70;99.90
33207;DHT22;19565;46.602;11.534;2023-10-19T02:39:14;11.70;99.90
33207;DHT22;19565;46.602;11.534;2023-10-19T02:41:45;11.70;99.90
33207;DHT22;19565;46.602;11.534;2023-10-19T02:44:14;11.70;99.90
33207;DHT22;19565;46.602;11.534;2023-10-19T02:46:51;11.70;99.90
33207;DHT22;19565;46.602;11.534;2023-10-19T02:49:21;11.80;99.90
33207;DHT22;19565;46.602;11.534;2023-10-19T02:51:50;11.70;99.90
33207;DHT22;19565;46.602;11.534;2023-10-19T02:54:20;11.70;99.90
33207;DHT22;19565;46.602;11.534;2023-10-19T02:56:50;11.70;99.90
33207;DHT22;19565;46.602;11.534;2023-10-19T02:59:19;11.70;99.90
33207;DHT22;19565;46.602;11.534;2023-10-19T03:01:51;11.70;99.90
33207;DHT22;19565;46.602;11.534;2023-10-19T03:04:19;11.70;99.90
33207;DHT22;19565;46.602;11.534;2023-10-19T03:06:47;11.70;99.90
33207;DHT22;19565;46.602;11.534;2023-10-19T03:09:14;11.60;99.90
33207;DHT22;19565;46.602;11.534;2023-10-19T03:11:50;11.70;99.90
33207;DHT22;19565;46.602;11.534;2023-10-19T03:14:20;11.70;99.90
33207;DHT22;19565;46.602;11.534;2023-10-19T03:16:53;11.60;99.90
33207;DHT22;19565;46.602;11.534;2023-10-19T03:19:22;11.60;99.90
33207;DHT22;19565;46.602;11.534;2023-10-19T03:21:52;11.70;99.90
33207;DHT22;19565;46.602;11.534;2023-10-19T03:24:22;11.70;99.90
33207;DHT22;19565;46.602;11.534;2023-10-19T03:27:04;11.60;99.90
33207;DHT22;19565;46.602;11.534;2023-10-19T03:29:39;11.60;99.90
33207;DHT22;19565;46.602;11.534;2023-10-19T03:32:14;11.60;99.90
33207;DHT22;19565;46.602;11.534;2023-10-19T03:34:43;11.70;99.90
33207;DHT22;19565;46.602;11.534;2023-10-19T03:37:15;11.70;99.90
33207;DHT22;19565;46.602;11.534;2023-10-19T03:39:46;11.70;99.90
33207;DHT22;19565;46.602;11.534;2023-10-19T03:42:14;11.70;99.90
33207;DHT22;19565;46.602;11.534;2023-10-19T03:44:41;11.70;99.90
33207;DHT22;19565;46.602;11.534;2023-10-19T03:47:21;11.70;99.90
33207;DHT22;19565;46.602;11.534;2023-10-19T03:49:53;11.70;99.90
33207;DHT22;19565;46.602;11.534;2023-10-19T03:52:21;11.70;99.90
33207;DHT22;19565;46.602;11.534;2023-10-19T03:54:49;11.70;99.90
33207;DHT22;19565;46.602;11.534;2023-10-19T03:57:18;11.70;99.90
33207;DHT22;19565;46.602;11.534;2023-10-19T03:59:50;11.70;99.90
33207;DHT22;19565;46.602;11.534;2023-10-19T04:02:22;11.70;99.90
33207;DHT22;19565;46.602;11.534;2023-10-19T04:04:51;11.70;99.90
33207;DHT22;19565;46.602;11.534;2023-10-19T04:07:23;11.70;99.90
33207;DHT22;19565;46.602;11.534;2023-10-19T04:09:53;11.70;99.90
33207;DHT22;19565;46.602;11.534;2023-10-19T04:12:37;11.70;99.90
33207;DHT22;19565;46.602;11.534;2023-10-19T04:15:09;11.70;99.90
33207;DHT22;19565;46.602;11.534;2023-10-19T04:17:41;11.70;99.90
33207;DHT22;19565;46.602;11.534;2023-10-19T04:20:10;11.80;99.90
33207;DHT22;19565;46.602;11.534;2023-10-19T04:22:55;11.70;99.90
33207;DHT22;19565;46.602;11.534;2023-10-19T04:25:24;11.70;99.90
33207;DHT22;19565;46.602;11.534;2023-10-19T04:27:54;11.70;99.90
33207;DHT22;19565;46.602;11.534;2023-10-19T04:30:24;11.70;99.90
33207;DHT22;19565;46.602;11.534;2023-10-19T04:32:54;11.70;99.90
33207;DHT22;19565;46.602;11.534;2023-10-19T04:35:25;11.70;99.90
33207;DHT22;19565;46.602;11.534;2023-10-19T04:37:57;11.70;99.90
33207;DHT22;19565;46.602;11.534;2023-10-19T04:40:26;11.70;99.90
33207;DHT22;19565;46.602;11.534;2023-10-19T04:42:54;11.70;99.90
33207;DHT22;19565;46.602;11.534;2023-10-19T04:45:22;11.70;99.90
33207;DHT22;19565;46.602;11.534;2023-10-19T04:47:50;11.80;99.90
33207;DHT22;19565;46.602;11.534;2023-10-19T04:50:23;11.70;99.90
33207;DHT22;19565;46.602;11.534;2023-10-19T04:52:51;11.70;99.90
33207;DHT22;19565;46.602;11.534;2023-10-19T04:55:19;11.70;99.90
33207;DHT22;19565;46.602;11.534;2023-10-19T04:57:47;11.70;99.90
33207;DHT22;19565;46.602;11.534;2023-10-19T05:00:17;11.70;99.90
33207;DHT22;19565;46.602;11.534;2023-10-19T05:02:47;11.70;99.90
33207;DHT22;19565;46.602;11.534;2023-10-19T05:05:16;11.70;99.90
33207;DHT22;19565;46.602;11.534;2023-10-19T05:07:46;11.70;99.90
33207;DHT22;19565;46.602;11.534;2023-10-19T05:10:14;11.70;99.90
33207;DHT22;19565;46.602;11.534;2023-10-19T05:12:42;11.70;99.90
33207;DHT22;19565;46.602;11.534;2023-10-19T05:15:10;11.70;99.90
33207;DHT22;19565;46.602;11.534;2023-10-19T05:17:38;11.70;99.90
33207;DHT22;19565;46.602;11.534;2023-10-19T05:20:07;11.70;99.90
33207;DHT22;19565;46.602;11.534;2023-10-19T05:22:35;11.70;99.90
33207;DHT22;19565;46.602;11.534;2023-10-19T05:25:06;11.70;99.90
33207;DHT22;19565;46.602;11.534;2023-10-19T05:27:34;11.70;99.90
33207;DHT22;19565;46.602;11.534;2023-10-19T05:30:03;11.80;99.90
33207;DHT22;19565;46.602;11.534;2023-10-19T05:32:31;11.80;99.90
33207;DHT22;19565;46.602;11.534;2023-10-19T05:35:00;11.80;99.90
33207;DHT22;19565;46.602;11.534;2023-10-19T05:37:31;11.80;99.90
33207;DHT22;19565;46.602;11.534;2023-10-19T05:40:00;11.70;99.90
33207;DHT22;19565;46.602;11.534;2023-10-19T05:42:33;11.80;99.90
33207;DHT22;19565;46.602;11.534;2023-10-19T05:45:01;11.70;99.90
33207;DHT22;19565;46.602;11.534;2023-10-19T05:47:29;11.80;99.90
33207;DHT22;19565;46.602;11.534;2023-10-19T05:49:57;11.70;99.90
33207;DHT22;19565;46.602;11.534;2023-10-19T05:52:26;11.80;99.90
33207;DHT22;19565;46.602;11.534;2023-10-19T05:54:54;11.80;99.90
33207;DHT22;19565;46.602;11.534;2023-10-19T05:57:24;11.80;99.90
33207;DHT22;19565;46.602;11.534;2023-10-19T05:59:53;11.80;99.90
33207;DHT22;19565;46.602;11.534;2023-10-19T06:02:21;11.80;99.90
33207;DHT22;19565;46.602;11.534;2023-10-19T06:04:59;11.80;99.90
33207;DHT22;19565;46.602;11.534;2023-10-19T06:07:27;11.80;99.90
33207;DHT22;19565;46.602;11.534;2023-10-19T06:09:55;11.80;99.90
33207;DHT22;19565;46.602;11.534;2023-10-19T06:12:23;11.80;99.90
33207;DHT22;19565;46.602;11.534;2023-10-19T06:14:53;11.80;99.90
33207;DHT22;19565;46.602;11.534;2023-10-19T06:17:20;11.80;99.90
33207;DHT22;19565;46.602;11.534;2023-10-19T06:19:50;11.90;99.90
33207;DHT22;19565;46.602;11.534;2023-10-19T06:22:18;11.90;99.90
33207;DHT22;19565;46.602;11.534;2023-10-19T06:24:45;11.90;99.90
33207;DHT22;19565;46.602;11.534;2023-10-19T06:27:13;11.90;99.90
33207;DHT22;19565;46.602;11.534;2023-10-19T06:29:41;11.90;99.90
33207;DHT22;19565;46.602;11.534;2023-10-19T06:32:12;11.90;99.90
33207;DHT22;19565;46.602;11.534;2023-10-19T06:34:41;11.90;99.90
33207;DHT22;19565;46.602;11.534;2023-10-19T06:37:09;11.90;99.90
33207;DHT22;19565;46.602;11.534;2023-10-19T06:39:38;11.80;99.90
33207;DHT22;19565;46.602;11.534;2023-10-19T06:42:08;11.90;99.90
33207;DHT22;19565;46.602;11.534;2023-10-19T06:44:41;11.80;99.90
33207;DHT22;19565;46.602;11.534;2023-10-19T06:47:10;11.90;99.90
33207;DHT22;19565;46.602;11.534;2023-10-19T06:49:40;11.80;99.90
33207;DHT22;19565;46.602;11.534;2023-10-19T06:52:08;11.90;99.90
33207;DHT22;19565;46.602;11.534;2023-10-19T06:54:38;11.90;99.90
33207;DHT22;19565;46.602;11.534;2023-10-19T06:57:06;11.80;99.90
33207;DHT22;19565;46.602;11.534;2023-10-19T06:59:35;11.90;99.90
33207;DHT22;19565;46.602;11.534;2023-10-19T07:02:03;11.90;99.90
33207;DHT22;19565;46.602;11.534;2023-10-19T07:04:34;11.90;99.90
33207;DHT22;19565;46.602;11.534;2023-10-19T07:07:04;11.90;99.90
33207;DHT22;19565;46.602;11.534;2023-10-19T07:09:32;11.90;99.90
33207;DHT22;19565;46.602;11.534;2023-10-19T07:12:01;12.00;99.90
33207;DHT22;19565;46.602;11.534;2023-10-19T07:14:31;12.00;99.90
33207;DHT22;19565;46.602;11.534;2023-10-19T07:16:59;12.00;99.90
33207;DHT22;19565;46.602;11.534;2023-10-19T07:19:28;12.00;99.90
33207;DHT22;19565;46.602;11.534;2023-10-19T07:21:56;12.10;99.90
33207;DHT22;19565;46.602;11.534;2023-10-19T07:24:26;12.10;99.90
33207;DHT22;19565;46.602;11.534;2023-10-19T07:26:55;12.20;99.90
33207;DHT22;19565;46.602;11.534;2023-10-19T07:29:31;12.20;99.90
33207;DHT22;19565;46.602;11.534;2023-10-19T07:32:00;12.30;99.90
33207;DHT22;19565;46.602;11.534;2023-10-19T07:34:31;12.30;99.90
33207;DHT22;19565;46.602;11.534;2023-10-19T07:37:00;12.30;99.90
33207;DHT22;19565;46.602;11.534;2023-10-19T07:39:31;12.30;99.90
33207;DHT22;19565;46.602;11.534;2023-10-19T07:42:00;12.20;99.90
33207;DHT22;19565;46.602;11.534;2023-10-19T07:44:31;12.20;99.90
33207;DHT22;19565;46.602;11.534;2023-10-19T07:46:59;12.20;99.90
33207;DHT22;19565;46.602;11.534;2023-10-19T07:49:28;12.30;99.90
33207;DHT22;19565;46.602;11.534;2023-10-19T07:51:56;12.30;99.90
33207;DHT22;19565;46.602;11.534;2023-10-19T07:54:24;12.30;99.90
33207;DHT22;19565;46.602;11.534;2023-10-19T07:56:55;12.40;99.90
33207;DHT22;19565;46.602;11.534;2023-10-19T07:59:24;12.40;99.90
33207;DHT22;19565;46.602;11.534;2023-10-19T08:01:52;12.50;99.90
33207;DHT22;19565;46.602;11.534;2023-10-19T08:04:20;12.50;99.90
33207;DHT22;19565;46.602;11.534;2023-10-19T08:06:48;12.50;99.90
33207;DHT22;19565;46.602;11.534;2023-10-19T08:09:16;12.50;99.90
33207;DHT22;19565;46.602;11.534;2023-10-19T08:11:49;12.50;99.90
33207;DHT22;19565;46.602;11.534;2023-10-19T08:14:23;12.50;99.90
33207;DHT22;19565;46.602;11.534;2023-10-19T08:16:51;12.50;99.90
33207;DHT22;19565;46.602;11.534;2023-10-19T08:19:19;12.50;99.90
33207;DHT22;19565;46.602;11.534;2023-10-19T08:21:48;12.50;99.90
33207;DHT22;19565;46.602;11.534;2023-10-19T08:24:16;12.50;99.90
33207;DHT22;19565;46.602;11.534;2023-10-19T08:26:45;12.50;99.90
33207;DHT22;19565;46.602;11.534;2023-10-19T08:29:13;12.50;99.90
33207;DHT22;19565;46.602;11.534;2023-10-19T08:31:43;12.50;99.90
33207;DHT22;19565;46.602;11.534;2023-10-19T08:34:12;12.60;99.90
33207;DHT22;19565;46.602;11.534;2023-10-19T08:36:40;12.60;99.90
33207;DHT22;19565;46.602;11.534;2023-10-19T08:39:10;12.70;99.90
33207;DHT22;19565;46.602;11.534;2023-10-19T08:41:39;12.60;99.90
33207;DHT22;19565;46.602;11.534;2023-10-19T08:44:08;12.70;99.90
33207;DHT22;19565;46.602;11.534;2023-10-19T08:46:40;12.80;99.90
33207;DHT22;19565;46.602;11.534;2023-10-19T08:49:11;12.80;99.90
33207;DHT22;19565;46.602;11.534;2023-10-19T08:51:43;12.90;99.90
33207;DHT22;19565;46.602;11.534;2023-10-19T08:54:12;12.90;99.90
33207;DHT22;19565;46.602;11.534;2023-10-19T08:56:41;12.90;99.90
33207;DHT22;19565;46.602;11.534;2023-10-19T08:59:09;13.00;99.90
33207;DHT22;19565;46.602;11.534;2023-10-19T09:01:38;13.00;99.90
33207;DHT22;19565;46.602;11.534;2023-10-19T09:04:06;13.10;99.90
33207;DHT22;19565;46.602;11.534;2023-10-19T09:06:36;13.10;99.90
33207;DHT22;19565;46.602;11.534;2023-10-19T09:09:09;13.10;99.90
33207;DHT22;19565;46.602;11.534;2023-10-19T09:11:43;13.10;99.90
33207;DHT22;19565;46.602;11.534;2023-10-19T09:14:11;13.20;99.90
33207;DHT22;19565;46.602;11.534;2023-10-19T09:16:53;13.20;99.90
33207;DHT22;19565;46.602;11.534;2023-10-19T09:19:36;13.20;99.90
33207;DHT22;19565;46.602;11.534;2023-10-19T09:22:06;13.30;99.90
33207;DHT22;19565;46.602;11.534;2023-10-19T09:24:44;13.30;99.90
33207;DHT22;19565;46.602;11.534;2023-10-19T09:27:13;13.30;99.90
33207;DHT22;19565;46.602;11.534;2023-10-19T09:29:44;13.30;99.90
33207;DHT22;19565;46.602;11.534;2023-10-19T09:32:12;13.40;99.90
33207;DHT22;19565;46.602;11.534;2023-10-19T09:34:44;13.40;99.90
33207;DHT22;19565;46.602;11.534;2023-10-19T09:37:16;13.50;99.90
33207;DHT22;19565;46.602;11.534;2023-10-19T09:39:45;13.60;99.90
33207;DHT22;19565;46.602;11.534;2023-10-19T09:42:14;13.70;99.90
33207;DHT22;19565;46.602;11.534;2023-10-19T09:44:45;13.80;99.90
33207;DHT22;19565;46.602;11.534;2023-10-19T09:47:18;13.80;99.90
33207;DHT22;19565;46.602;11.534;2023-10-19T09:49:48;13.90;99.90
33207;DHT22;19565;46.602;11.534;2023-10-19T09:52:19;13.90;99.90
33207;DHT22;19565;46.602;11.534;2023-10-19T09:54:54;13.90;99.90
33207;DHT22;19565;46.602;11.534;2023-10-19T09:57:30;13.90;99.90
33207;DHT22;19565;46.602;11.534;2023-10-19T10:00:03;13.90;99.90
33207;DHT22;19565;46.602;11.534;2023-10-19T10:02:39;13.90;99.90
33207;DHT22;19565;46.602;11.534;2023-10-19T10:08:30;13.90;99.90
33207;DHT22;19565;46.602;11.534;2023-10-19T10:11:13;13.90;99.90
33207;DHT22;19565;46.602;11.534;2023-10-19T10:13:44;13.90;99.90
33207;DHT22;19565;46.602;11.534;2023-10-19T10:16:13;14.00;99.90
33207;DHT22;19565;46.602;11.534;2023-10-19T10:18:42;14.00;99.90
33207;DHT22;19565;46.602;11.534;2023-10-19T10:21:12;14.00;99.90
33207;DHT22;19565;46.602;11.534;2023-10-19T10:23:44;14.00;99.90
33207;DHT22;19565;46.602;11.534;2023-10-19T10:26:15;14.00;99.90
33207;DHT22;19565;46.602;11.534;2023-10-19T10:28:46;14.00;99.90
33207;DHT22;19565;46.602;11.534;2023-10-19T10:31:19;13.90;99.90
33207;DHT22;19565;46.602;11.534;2023-10-19T10:33:49;13.90;99.90
33207;DHT22;19565;46.602;11.534;2023-10-19T10:36:18;13.90;99.90
33207;DHT22;19565;46.602;11.534;2023-10-19T10:38:49;13.90;99.90
33207;DHT22;19565;46.602;11.534;2023-10-19T10:41:21;13.90;99.90
33207;DHT22;19565;46.602;11.534;2023-10-19T10:43:53;13.90;99.90
33207;DHT22;19565;46.602;11.534;2023-10-19T10:46:23;13.80;99.90
33207;DHT22;19565;46.602;11.534;2023-10-19T10:48:51;13.80;99.90
33207;DHT22;19565;46.602;11.534;2023-10-19T10:51:20;13.80;99.90
33207;DHT22;19565;46.602;11.534;2023-10-19T10:53:51;13.70;99.90
33207;DHT22;19565;46.602;11.534;2023-10-19T10:56:21;13.70;99.90
33207;DHT22;19565;46.602;11.534;2023-10-19T10:58:50;13.70;99.90
33207;DHT22;19565;46.602;11.534;2023-10-19T11:01:28;13.70;99.90
33207;DHT22;19565;46.602;11.534;2023-10-19T11:04:06;13.70;99.90
33207;DHT22;19565;46.602;11.534;2023-10-19T11:06:46;13.60;99.90
33207;DHT22;19565;46.602;11.534;2023-10-19T11:09:17;13.60;99.90
33207;DHT22;19565;46.602;11.534;2023-10-19T11:11:46;13.60;99.90
33207;DHT22;19565;46.602;11.534;2023-10-19T11:14:15;13.50;99.90
33207;DHT22;19565;46.602;11.534;2023-10-19T11:16:43;13.50;99.90
33207;DHT22;19565;46.602;11.534;2023-10-19T11:19:11;13.50;99.90
33207;DHT22;19565;46.602;11.534;2023-10-19T11:21:52;13.50;99.90
33207;DHT22;19565;46.602;11.534;2023-10-19T11:24:26;13.50;99.90
33207;DHT22;19565;46.602;11.534;2023-10-19T11:26:57;13.50;99.90
33207;DHT22;19565;46.602;11.534;2023-10-19T11:29:25;13.50;99.90
33207;DHT22;19565;46.602;11.534;2023-10-19T11:31:59;13.50;99.90
33207;DHT22;19565;46.602;11.534;2023-10-19T11:34:28;13.50;99.90
33207;DHT22;19565;46.602;11.534;2023-10-19T11:36:57;13.50;99.90
33207;DHT22;19565;46.602;11.534;2023-10-19T11:39:28;13.60;99.90
33207;DHT22;19565;46.602;11.534;2023-10-19T11:41:56;13.50;99.90
33207;DHT22;19565;46.602;11.534;2023-10-19T11:44:24;13.60;99.90
33207;DHT22;19565;46.602;11.534;2023-10-19T11:46:52;13.50;99.90
33207;DHT22;19565;46.602;11.534;2023-10-19T11:49:20;13.50;99.90
33207;DHT22;19565;46.602;11.534;2023-10-19T11:51:52;13.60;99.90
33207;DHT22;19565;46.602;11.534;2023-10-19T11:54:20;13.60;99.90
33207;DHT22;19565;46.602;11.534;2023-10-19T11:56:49;13.60;99.90
33207;DHT22;19565;46.602;11.534;2023-10-19T11:59:17;13.60;99.90
33207;DHT22;19565;46.602;11.534;2023-10-19T12:01:45;13.70;99.90
33207;DHT22;19565;46.602;11.534;2023-10-19T12:04:14;13.70;99.90
33207;DHT22;19565;46.602;11.534;2023-10-19T12:06:42;13.80;99.90
33207;DHT22;19565;46.602;11.534;2023-10-19T12:09:12;13.80;99.90
33207;DHT22;19565;46.602;11.534;2023-10-19T12:11:42;13.80;99.90
33207;DHT22;19565;46.602;11.534;2023-10-19T12:14:15;13.90;99.90
33207;DHT22;19565;46.602;11.534;2023-10-19T12:16:43;14.00;99.90
33207;DHT22;19565;46.602;11.534;2023-10-19T12:19:12;14.10;99.90
33207;DHT22;19565;46.602;11.534;2023-10-19T12:21:41;14.00;99.90
33207;DHT22;19565;46.602;11.534;2023-10-19T12:24:09;14.10;99.90
33207;DHT22;19565;46.602;11.534;2023-10-19T12:26:37;14.10;99.90
33207;DHT22;19565;46.602;11.534;2023-10-19T12:29:06;14.20;99.90
33207;DHT22;19565;46.602;11.534;2023-10-19T12:31:39;14.20;99.90
33207;DHT22;19565;46.602;11.534;2023-10-19T12:34:07;14.20;99.90
33207;DHT22;19565;46.602;11.534;2023-10-19T12:36:38;14.20;99.90
33207;DHT22;19565;46.602;11.534;2023-10-19T12:39:08;14.20;99.90
33207;DHT22;19565;46.602;11.534;2023-10-19T12:41:38;14.20;99.90
33207;DHT22;19565;46.602;11.534;2023-10-19T12:44:06;14.20;99.90
33207;DHT22;19565;46.602;11.534;2023-10-19T12:46:36;14.20;99.90
33207;DHT22;19565;46.602;11.534;2023-10-19T12:49:06;14.10;99.90
33207;DHT22;19565;46.602;11.534;2023-10-19T12:51:35;14.10;99.90
33207;DHT22;19565;46.602;11.534;2023-10-19T12:54:03;14.10;99.90
33207;DHT22;19565;46.602;11.534;2023-10-19T12:56:31;14.00;99.90
33207;DHT22;19565;46.602;11.534;2023-10-19T12:59:02;14.00;99.90
33207;DHT22;19565;46.602;11.534;2023-10-19T13:01:33;13.90;99.90
33207;DHT22;19565;46.602;11.534;2023-10-19T13:04:02;13.90;99.90
33207;DHT22;19565;46.602;11.534;2023-10-19T13:06:42;13.90;99.90
33207;DHT22;19565;46.602;11.534;2023-10-19T13:09:10;13.90;99.90
33207;DHT22;19565;46.602;11.534;2023-10-19T13:11:38;14.00;99.90
33207;DHT22;19565;46.602;11.534;2023-10-19T13:14:10;13.90;99.90
33207;DHT22;19565;46.602;11.534;2023-10-19T13:16:39;14.00;99.90
33207;DHT22;19565;46.602;11.534;2023-10-19T13:19:07;14.00;99.90
33207;DHT22;19565;46.602;11.534;2023-10-19T13:21:39;14.00;99.90
33207;DHT22;19565;46.602;11.534;2023-10-19T13:24:10;14.00;99.90
33207;DHT22;19565;46.602;11.534;2023-10-19T13:26:38;14.00;99.90
33207;DHT22;19565;46.602;11.534;2023-10-19T13:29:09;14.00;99.90
33207;DHT22;19565;46.602;11.534;2023-10-19T13:31:38;14.00;99.90
33207;DHT22;19565;46.602;11.534;2023-10-19T13:34:06;13.90;99.90
33207;DHT22;19565;46.602;11.534;2023-10-19T13:36:37;13.90;99.90
33207;DHT22;19565;46.602;11.534;2023-10-19T13:39:05;13.80;99.90
33207;DHT22;19565;46.602;11.534;2023-10-19T13:41:41;13.80;99.90
33207;DHT22;19565;46.602;11.534;2023-10-19T13:44:09;13.80;99.90
33207;DHT22;19565;46.602;11.534;2023-10-19T13:46:38;13.70;99.90
33207;DHT22;19565;46.602;11.534;2023-10-19T13:49:06;13.70;99.90
33207;DHT22;19565;46.602;11.534;2023-10-19T13:51:36;13.70;99.90
33207;DHT22;19565;46.602;11.534;2023-10-19T13:54:06;13.70;99.90
33207;DHT22;19565;46.602;11.534;2023-10-19T13:56:34;13.70;99.90
33207;DHT22;19565;46.602;11.534;2023-10-19T13:59:03;13.70;99.90
33207;DHT22;19565;46.602;11.534;2023-10-19T14:01:32;13.70;99.90
33207;DHT22;19565;46.602;11.534;2023-10-19T14:04:00;13.70;99.90
33207;DHT22;19565;46.602;11.534;2023-10-19T14:06:28;13.60;99.90
33207;DHT22;19565;46.602;11.534;2023-10-19T14:08:57;13.60;99.90
33207;DHT22;19565;46.602;11.534;2023-10-19T14:11:25;13.60;99.90
33207;DHT22;19565;46.602;11.534;2023-10-19T14:13:53;13.60;99.90
33207;DHT22;19565;46.602;11.534;2023-10-19T14:16:23;13.60;99.90
33207;DHT22;19565;46.602;11.534;2023-10-19T14:18:52;13.60;99.90
33207;DHT22;19565;46.602;11.534;2023-10-19T14:21:20;13.50;99.90
33207;DHT22;19565;46.602;11.534;2023-10-19T14:23:50;13.50;99.90
33207;DHT22;19565;46.602;11.534;2023-10-19T14:26:18;13.50;99.90
33207;DHT22;19565;46.602;11.534;2023-10-19T14:28:46;13.50;99.90
33207;DHT22;19565;46.602;11.534;2023-10-19T14:31:14;13.50;99.90
33207;DHT22;19565;46.602;11.534;2023-10-19T14:33:44;13.40;99.90
33207;DHT22;19565;46.602;11.534;2023-10-19T14:36:13;13.40;99.90
33207;DHT22;19565;46.602;11.534;2023-10-19T14:38:41;13.30;99.90
33207;DHT22;19565;46.602;11.534;2023-10-19T14:41:11;13.30;99.90
33207;DHT22;19565;46.602;11.534;2023-10-19T14:43:39;13.40;99.90
33207;DHT22;19565;46.602;11.534;2023-10-19T14:46:07;13.40;99.90
33207;DHT22;19565;46.602;11.534;2023-10-19T14:48:35;13.30;99.90
33207;DHT22;19565;46.602;11.534;2023-10-19T14:51:05;13.30;99.90
33207;DHT22;19565;46.602;11.534;2023-10-19T14:53:34;13.30;99.90
33207;DHT22;19565;46.602;11.534;2023-10-19T14:56:02;13.30;99.90
33207;DHT22;19565;46.602;11.534;2023-10-19T14:58:30;13.30;99.90
33207;DHT22;19565;46.602;11.534;2023-10-19T15:00:58;13.30;99.90
33207;DHT22;19565;46.602;11.534;2023-10-19T15:03:26;13.30;99.90
33207;DHT22;19565;46.602;11.534;2023-10-19T15:05:55;13.30;99.90
33207;DHT22;19565;46.602;11.534;2023-10-19T15:08:28;13.30;99.90
33207;DHT22;19565;46.602;11.534;2023-10-19T15:10:58;13.30;99.90
33207;DHT22;19565;46.602;11.534;2023-10-19T15:13:27;13.30;99.90
33207;DHT22;19565;46.602;11.534;2023-10-19T15:15:54;13.40;99.90
33207;DHT22;19565;46.602;11.534;2023-10-19T15:18:23;13.30;99.90
33207;DHT22;19565;46.602;11.534;2023-10-19T15:20:51;13.30;99.90
33207;DHT22;19565;46.602;11.534;2023-10-19T15:23:19;13.40;99.90
33207;DHT22;19565;46.602;11.534;2023-10-19T15:25:49;13.40;99.90
33207;DHT22;19565;46.602;11.534;2023-10-19T15:28:17;13.40;99.90
33207;DHT22;19565;46.602;11.534;2023-10-19T15:30:45;13.40;99.90
33207;DHT22;19565;46.602;11.534;2023-10-19T15:33:13;13.40;99.90
33207;DHT22;19565;46.602;11.534;2023-10-19T15:35:41;13.40;99.90